Latest Weather Observations for Kalgoorlie-Boulder

IDW60801

Issued at 5:42 pm WST Saturday 3 December 2022 (issued every 10 minutes, with the page automatically refreshed every 10 minutes)

About weather observations | Map of weather stations | Latest weather observations for WA | Other Formats
Station Details ID: 012038 Name: KALGOORLIE-BOULDER AIRPORT Lat: -30.78 Lon: 121.45 Height: 365.3 m
Data from the previous 72 hours. | See also: Recent months at Kalgoorlie-Boulder
Date/Time
WST
Temp
°C
App
Temp
°C
Dew
Point
°C
Rel
Hum
%
Delta-T
°C
Wind Press
QNH
hPa
Press
MSL
hPa
Rain since
9am
mm
Dir  Spd
km/h
Gust
km/h
Spd
kts
Gust
kts
03/05:30pm 33.3 30.4 8.0 21 14.3 ENE 13 17 7 9 1008.0 1006.0 0.0
03/05:00pm 32.8 30.4 10.2 25 13.2 NNW 13 26 7 14 1008.2 1006.3 0.0
03/04:46pm 32.7 29.0 10.1 25 13.2 NW 20 46 11 25 1008.8 1006.8 0.0
03/04:44pm 33.4 30.1 9.4 23 13.9 NNW 17 46 9 25 1008.9 1006.9 0.0
03/04:30pm 35.7 33.3 5.1 15 16.7 N 7 9 4 5 1007.8 1005.8 0.0
03/04:00pm 36.1 33.5 4.4 14 17.2 ESE 7 13 4 7 1007.4 1005.4 0.0
03/03:30pm 36.6 33.7 4.8 14 17.4 WSW 9 13 5 7 1007.7 1005.7 0.0
03/03:00pm 36.7 33.6 3.8 13 17.7 SSE 9 13 5 7 1008.0 1006.0 0.0
03/02:30pm 35.8 32.6 5.1 15 16.8 S 11 20 6 11 1008.3 1006.4 0.0
03/02:00pm 35.3 33.2 5.7 16 16.3 SE 6 13 3 7 1008.6 1006.7 0.0
03/01:30pm 34.7 33.0 8.4 20 15.0 ENE 7 15 4 8 1008.9 1006.9 0.0
03/01:00pm 34.2 32.0 9.4 22 14.4 ENE 11 19 6 10 1009.2 1007.2 0.0
03/12:30pm 32.7 29.9 10.1 25 13.2 E 15 24 8 13 1009.7 1007.7 0.0
03/12:00pm 31.5 29.3 10.8 28 12.1 E 13 20 7 11 1009.8 1007.8 0.0
03/11:30am 31.3 29.0 11.7 30 11.6 SSE 15 20 8 11 1010.2 1008.2 0.0
03/11:00am 29.9 27.5 11.4 32 10.9 SE 15 22 8 12 1010.5 1008.5 0.0
03/10:30am 28.3 26.3 11.4 35 9.9 SE 13 20 7 11 1010.8 1008.9 0.0
03/10:00am 27.3 25.0 11.7 37 9.1 ESE 15 20 8 11 1011.0 1009.1 0.0
03/09:30am 25.4 23.1 11.6 42 8.0 SE 15 24 8 13 1011.2 1009.3 0.0
03/09:00am 24.6 21.8 11.5 43 7.5 SE 17 24 9 13 1011.3 1009.4 0.0
03/08:30am 22.9 20.0 12.2 51 6.2 ESE 19 24 10 13 1011.3 1009.4 0.0
03/08:00am 22.2 19.4 12.7 55 5.5 SE 19 24 10 13 1011.5 1009.6 0.0
03/07:30am 20.8 18.4 12.8 60 4.6 SSE 17 22 9 12 1011.4 1009.5 0.0
03/07:00am 19.7 17.4 12.9 65 3.9 SE 17 24 9 13 1011.4 1009.5 0.0
03/06:30am 18.6 15.9 12.8 69 3.3 SE 19 24 10 13 1011.2 1009.3 0.0
03/06:00am 18.3 15.6 13.0 71 3.0 SE 19 26 10 14 1010.9 1009.0 0.0
03/05:30am 17.7 15.3 12.6 72 2.9 SSE 17 22 9 12 1010.5 1008.5 0.0
03/05:00am 17.7 14.9 12.6 72 2.9 SE 19 26 10 14 1010.2 1008.2 0.0
03/04:30am 18.3 16.2 12.3 68 3.4 SE 15 22 8 12 1010.0 1008.0 0.0
03/04:00am 19.0 16.4 12.0 64 4.0 SE 17 24 9 13 1009.7 1007.7 0.0
03/03:30am 19.6 16.6 12.1 62 4.2 SE 19 28 10 15 1009.4 1007.4 0.0
03/03:00am 20.3 17.3 12.0 59 4.7 SSE 19 24 10 13 1009.2 1007.2 0.0
03/02:30am 21.0 18.0 12.4 58 4.9 SE 20 28 11 15 1008.9 1006.9 0.0
03/02:00am 21.5 19.3 13.2 59 4.8 SSE 17 28 9 15 1008.9 1006.9 0.0
03/01:30am 21.8 19.1 12.9 57 5.2 SE 19 26 10 14 1008.6 1006.7 0.0
03/01:00am 22.4 20.1 12.9 55 5.5 SSE 17 24 9 13 1008.8 1006.8 0.0
03/12:30am 23.4 20.6 12.7 51 6.2 SSE 19 26 10 14 1008.6 1006.7 0.0
03/12:00am 25.2 23.4 12.1 44 7.6 SE 13 22 7 12 1008.9 1006.9 0.0
 
Date/Time
WST
Temp
°C
App
Temp
°C
Dew
Point
°C
Rel
Hum
%
Delta-T
°C
Wind Press
QNH
hPa
Press
MSL
hPa
Rain since
9am
mm
Dir  Spd
km/h
Gust
km/h
Spd
kts
Gust
kts
02/11:30pm 26.2 23.0 11.2 39 8.6 SSE 19 28 10 15 1008.8 1006.8 0.0
02/11:00pm 27.3 23.6 10.1 34 9.8 SE 20 28 11 15 1008.4 1006.5 0.0
02/10:30pm 28.3 24.6 10.0 32 10.4 SSE 20 30 11 16 1008.4 1006.5 0.0
02/10:00pm 29.0 25.6 9.2 29 11.2 SSE 17 26 9 14 1008.3 1006.4 0.0
02/09:30pm 28.5 24.6 3.4 20 12.8 SSW 13 15 7 8 1007.9 1005.9 0.0
02/09:00pm 29.0 25.8 3.1 19 13.2 SSW 9 11 5 6 1007.5 1005.5 0.0
02/08:30pm 29.9 26.7 3.0 18 13.7 SSW 9 11 5 6 1007.2 1005.2 0.0
02/08:00pm 30.7 27.1 2.9 17 14.3 SSW 11 13 6 7 1006.9 1004.9 0.0
02/07:30pm 32.2 28.5 2.3 15 15.3 SW 11 13 6 7 1006.6 1004.6 0.0
02/07:00pm 34.0 29.6 2.8 14 16.3 SW 15 20 8 11 1006.2 1004.2 0.0
02/06:30pm 35.0 30.2 2.5 13 17.0 SW 17 24 9 13 1005.7 1003.8 0.0
02/06:00pm 36.1 29.9 2.2 12 17.8 WSW 24 30 13 16 1005.3 1003.3 0.0
02/05:30pm 37.3 31.0 -0.9 9 19.2 W 22 32 12 17 1004.9 1002.9 0.0
02/05:00pm 37.7 30.3 -0.6 9 19.4 W 28 41 15 22 1004.5 1002.5 0.0
02/04:30pm 38.4 32.6 0.0 9 19.7 W 20 37 11 20 1004.4 1002.4 0.0
02/04:00pm 38.6 33.0 0.1 9 19.8 WNW 19 28 10 15 1004.4 1002.4 0.0
02/03:37pm 38.4 31.1 0.0 9 19.7 WSW 28 46 15 25 1004.3 1002.3 0.0
02/03:30pm 38.9 32.8 0.3 9 19.9 W 22 37 12 20 1004.3 1002.3 0.0
02/03:00pm 38.5 31.6 0.0 9 19.8 WNW 26 37 14 20 1004.5 1002.5 0.0
02/02:34pm 37.8 30.6 1.0 10 19.1 W 28 46 15 25 1004.6 1002.6 0.0
02/02:30pm 38.1 30.8 -0.3 9 19.5 W 28 46 15 25 1004.6 1002.6 0.0
02/02:00pm 38.0 31.0 -0.3 9 19.6 W 26 41 14 22 1004.9 1002.9 0.0
02/01:44pm 37.4 30.6 0.7 10 18.9 W 26 48 14 26 1005.1 1003.1 0.0
02/01:30pm 38.0 32.0 1.1 10 19.2 W 22 33 12 18 1005.1 1003.1 0.0
02/01:00pm 37.9 32.3 1.0 10 19.2 NW 20 37 11 20 1005.2 1003.2 0.0
02/12:30pm 37.5 30.7 0.7 10 19.0 W 26 43 14 23 1005.6 1003.6 0.0
02/12:00pm 35.7 31.6 6.0 16 16.5 W 17 33 9 18 1006.0 1004.0 0.0
02/11:30am 34.9 30.8 6.2 17 15.9 WSW 17 26 9 14 1006.6 1004.6 0.0
02/11:00am 33.4 29.9 7.4 20 14.6 NW 15 20 8 11 1007.2 1005.2 0.0
02/10:30am 32.4 30.4 8.6 23 13.5 NNW 9 19 5 10 1007.4 1005.4 0.0
02/10:00am 30.9 29.8 10.8 29 11.8 S 7 13 4 7 1007.6 1005.6 0.0
02/09:30am 29.3 28.3 10.9 32 10.7 W 7 13 4 7 1007.8 1005.8 0.0
02/09:00am 27.8 27.1 11.4 36 9.6 NW 6 9 3 5 1007.8 1005.8 0.0
02/08:30am 25.6 24.9 12.1 43 7.9 SSW 7 13 4 7 1008.0 1006.0 0.0
02/08:00am 24.3 23.4 12.6 48 6.8 SSW 9 13 5 7 1007.9 1005.9 0.0
02/07:30am 22.3 20.6 12.5 53 5.7 SSW 13 19 7 10 1007.8 1005.8 0.0
02/07:00am 21.0 18.5 12.2 57 5.0 SSW 17 20 9 11 1007.7 1005.7 0.0
02/06:30am 20.2 17.7 12.2 60 4.6 SSW 17 20 9 11 1007.5 1005.5 0.0
02/06:00am 19.5 17.1 11.5 60 4.5 SSW 15 19 8 10 1007.3 1005.3 0.0
02/05:30am 19.0 16.8 9.5 54 5.1 SSW 11 15 6 8 1007.2 1005.2 0.0
02/05:00am 18.3 16.0 7.4 49 5.6 SW 9 13 5 7 1006.8 1004.8 0.0
02/04:30am 18.6 15.9 5.5 42 6.5 SSW 9 13 5 7 1006.3 1004.3 0.0
02/04:00am 19.6 16.4 4.9 38 7.3 SSW 11 15 6 8 1005.7 1003.8 0.0
02/03:30am 19.7 16.6 3.8 35 7.7 SW 9 15 5 8 1005.4 1003.4 0.0
02/03:00am 20.0 17.3 2.4 31 8.3 WSW 6 9 3 5 1005.1 1003.1 0.0
02/02:30am 21.2 18.2 2.0 28 9.1 SSW 7 11 4 6 1004.9 1002.9 0.0
02/02:00am 22.8 17.9 1.8 25 10.1 SW 17 20 9 11 1004.6 1002.6 0.0
02/01:30am 23.4 18.8 1.7 24 10.4 SW 15 20 8 11 1005.0 1003.0 0.0
02/01:00am 23.6 18.6 1.3 23 10.6 SW 17 19 9 10 1005.1 1003.1 0.0
02/12:30am 24.2 20.0 1.8 23 10.8 SW 13 17 7 9 1005.3 1003.3 0.0
02/12:00am 23.7 20.3 2.0 24 10.5 SW 9 13 5 7 1005.6 1003.6 0.0
 
Date/Time
WST
Temp
°C
App
Temp
°C
Dew
Point
°C
Rel
Hum
%
Delta-T
°C
Wind Press
QNH
hPa
Press
MSL
hPa
Rain since
9am
mm
Dir  Spd
km/h
Gust
km/h
Spd
kts
Gust
kts
01/11:30pm 24.4 20.6 1.9 23 10.9 SW 11 13 6 7 1005.7 1003.8 0.0
01/11:00pm 24.8 21.8 1.7 22 11.2 SW 7 9 4 5 1006.3 1004.3 0.0
01/10:30pm 25.3 23.2 1.4 21 11.5 WSW 2 7 1 4 1006.2 1004.2 0.0
01/10:00pm 26.2 23.3 1.5 20 12.0 WSW 6 7 3 4 1006.3 1004.3 0.0
01/09:30pm 28.1 24.3 1.6 18 13.1 WSW 11 13 6 7 1006.2 1004.2 0.0
01/09:00pm 28.6 24.3 1.2 17 13.5 WSW 13 15 7 8 1006.0 1004.0 0.0
01/08:30pm 29.4 26.0 1.8 17 13.8 SW 9 11 5 6 1005.9 1003.9 0.0
01/08:00pm 30.2 26.4 1.6 16 14.3 SW 11 15 6 8 1005.6 1003.6 0.0
01/07:30pm 32.5 27.5 1.6 14 15.7 WSW 17 20 9 11 1005.3 1003.3 0.0
01/07:00pm 33.5 27.5 1.3 13 16.4 WSW 22 32 12 17 1005.0 1003.0 0.0
01/06:30pm 34.7 28.1 2.3 13 16.8 SW 26 35 14 19 1004.5 1002.5 0.0
01/06:00pm 35.9 28.5 2.1 12 17.7 SW 30 39 16 21 1004.1 1002.1 0.0
01/05:39pm 36.6 29.5 3.7 13 17.7 SW 30 43 16 23 1003.6 1001.6 0.0
01/05:30pm 37.6 32.1 2.1 11 18.7 SW 20 32 11 17 1003.4 1001.4 0.0
01/05:00pm 37.9 31.3 -0.4 9 19.5 WNW 24 35 13 19 1003.2 1001.1 0.0
01/04:30pm 38.6 31.2 1.6 10 19.4 W 30 48 16 26 1003.2 1001.1 0.0
01/04:24pm 38.6 31.8 2.9 11 19.1 W 28 48 15 26 1003.1 1001.0 0.0
01/04:00pm 38.4 32.1 4.0 12 18.8 WNW 26 44 14 24 1003.2 1001.1 0.0
01/03:30pm 37.5 32.1 4.4 13 18.1 W 22 43 12 23 1003.2 1001.1 0.0
01/03:00pm 37.9 31.2 3.6 12 18.6 WNW 28 43 15 23 1003.6 1001.6 0.0
01/02:38pm 38.4 30.8 2.8 11 19.0 WNW 32 50 17 27 1003.7 1001.7 0.0
01/02:30pm 39.0 31.8 3.2 11 19.3 WNW 30 48 16 26 1003.6 1001.6 0.0
01/02:00pm 39.2 31.4 2.0 10 19.8 W 32 52 17 28 1003.8 1001.8 0.0
01/01:30pm 38.5 30.9 2.8 11 19.1 W 32 54 17 29 1004.1 1002.1 0.0
01/01:23pm 39.5 33.5 3.6 11 19.5 W 24 50 13 27 1004.3 1002.3 0.0
01/01:21pm 39.1 33.1 3.3 11 19.4 W 24 50 13 27 1004.0 1002.0 0.0
01/01:00pm 38.1 31.6 2.5 11 19.0 WNW 26 39 14 21 1004.4 1002.4 0.0
01/12:40pm 38.2 31.1 1.3 10 19.3 WNW 28 46 15 25 1004.8 1002.8 0.0
01/12:30pm 37.9 31.4 2.4 11 18.8 WNW 26 44 14 24 1004.9 1002.9 0.0
01/12:28pm 37.8 30.9 2.3 11 18.8 W 28 46 15 25 1004.9 1002.9 0.0
01/12:00pm 37.8 31.6 2.3 11 18.8 WNW 24 35 13 19 1005.3 1003.3 0.0
01/11:30am 37.2 32.1 3.1 12 18.2 WNW 19 35 10 19 1005.7 1003.8 0.0
01/11:00am 36.7 30.8 3.8 13 17.8 WNW 24 37 13 20 1006.2 1004.2 0.0
01/10:30am 35.1 29.9 2.6 13 17.0 NW 19 32 10 17 1006.7 1004.7 0.0
01/10:00am 35.1 29.9 2.6 13 17.1 NW 19 37 10 20 1007.1 1005.1 0.0
01/09:41am 34.8 30.1 3.4 14 16.6 NNE 17 37 9 20 1007.1 1005.1 0.0
01/09:30am 33.4 29.9 1.3 13 16.3 NE 9 17 5 9 1007.3 1005.3 0.0
01/09:00am 32.5 27.5 1.6 14 15.7 N 17 24 9 13 1007.8 1005.8 0.0
01/08:30am 29.7 26.3 2.1 17 13.9 NE 9 13 5 7 1008.1 1006.2 0.0
01/08:00am 27.7 24.7 4.1 22 12.2 ESE 9 15 5 8 1008.4 1006.5 0.0
01/07:30am 26.0 22.6 3.9 24 11.2 ESE 11 17 6 9 1008.6 1007.1 0.0
01/07:00am 24.7 21.0 4.5 27 10.3 SE 13 17 7 9 1008.6 1007.1 0.0
01/06:30am 24.5 20.7 3.8 26 10.4 ESE 13 19 7 10 1008.5 1007.0 0.0
01/06:00am 23.9 20.6 2.7 25 10.4 ESE 9 11 5 6 1008.2 1006.7 0.0
01/05:30am 23.4 20.4 2.3 25 10.2 NE 7 13 4 7 1008.0 1006.5 0.0
01/05:00am 22.9 19.5 1.9 25 10.1 NE 9 13 5 7 1007.4 1005.8 0.0
01/04:30am 23.0 19.2 1.9 25 10.1 NNE 11 13 6 7 1007.2 1005.6 0.0
01/04:00am 23.0 19.2 1.9 25 10.1 NE 11 15 6 8 1007.2 1005.6 0.0
01/03:30am 23.3 19.6 2.2 25 10.2 NE 11 19 6 10 1007.2 1005.6 0.0
01/03:00am 23.5 19.4 2.4 25 10.3 NE 13 19 7 10 1007.2 1005.6 0.0
01/02:30am 23.4 19.8 2.8 26 10.1 NE 11 17 6 9 1007.4 1005.8 0.0
01/02:00am 23.5 19.6 3.4 27 10.0 NNE 13 19 7 10 1007.6 1006.0 0.0
01/01:30am 23.6 19.1 4.0 28 9.8 NE 17 26 9 14 1008.1 1006.6 0.0
01/01:00am 23.7 18.8 4.1 28 9.8 NNE 19 28 10 15 1008.4 1006.9 0.0
01/12:30am 24.3 18.4 4.1 27 10.2 NE 24 43 13 23 1009.1 1007.5 0.0
01/12:00am 24.3 19.5 4.6 28 10.0 NE 19 33 10 18 1009.8 1008.2 0.0
 
Date/Time
WST
Temp
°C
App
Temp
°C
Dew
Point
°C
Rel
Hum
%
Delta-T
°C
Wind Press
QNH
hPa
Press
MSL
hPa
Rain since
9am
mm
Dir  Spd
km/h
Gust
km/h
Spd
kts
Gust
kts
30/11:30pm 24.4 19.5 4.2 27 10.2 NE 19 26 10 14 1010.1 1008.5 0.0
30/11:00pm 24.7 19.3 4.5 27 10.3 NE 22 32 12 17 1010.1 1008.5 0.0
30/10:30pm 24.7 18.6 5.0 28 10.1 NE 26 37 14 20 1010.5 1009.0 0.0
30/10:12pm 24.8 18.0 5.1 28 10.1 NE 30 48 16 26 1010.6 1009.1 0.0
30/10:00pm 24.8 18.0 5.1 28 10.1 NE 30 44 16 24 1010.5 1009.0 0.0
30/09:49pm 25.0 18.2 5.2 28 10.2 ENE 30 50 16 27 1010.1 1008.5 0.0
30/09:30pm 24.8 18.1 5.6 29 10.0 ENE 30 43 16 23 1010.2 1008.7 0.0
30/09:00pm 24.9 18.7 6.1 30 9.9 ENE 28 43 15 23 1010.4 1008.9 0.0
30/08:30pm 25.5 18.9 6.2 29 10.2 E 30 48 16 26 1010.1 1008.5 0.0
30/08:00pm 24.5 17.8 7.2 33 9.2 ENE 32 54 17 29 1011.1 1009.6 0.0
30/07:59pm 24.4 18.5 7.5 34 9.0 ENE 28 48 15 26 1011.3 1009.8 0.0
30/07:30pm 24.4 18.5 7.5 34 9.0 SE 28 37 15 20 1012.7 1011.2 0.0
30/07:00pm 25.2 19.9 6.9 31 9.7 SE 24 37 13 20 1011.9 1010.3 0.0
30/06:30pm 25.9 20.2 6.5 29 10.3 SE 26 39 14 21 1011.8 1010.2 0.0
30/06:00pm 27.1 21.6 6.0 26 11.2 SSE 24 35 13 19 1011.1 1009.6 0.0

Other formats

Comma delimited format used in spreadsheet applications
http://www.bom.gov.au/fwo/IDW60801/IDW60801.94637.axf

JavaScript Object Notation format (JSON) in row-major order
http://www.bom.gov.au/fwo/IDW60801/IDW60801.94637.json

Data quality

Most of these data are generated automatically and are frequently updated. Quality checks on data are not normally performed. It is possible for incorrect values to appear. Refer to information at About Latest Weather Observations and please check the disclaimer before using these data.